Time;durP1;ratioP1;P1;durP2;ratioP2;P2;SDS_P1;SDS_P2;PMS_P1;PMS_P2;Temp;Humidity;BMP_temperature;BMP_pressure;BME280_temperature;BME280_humidity;BME280_pressure;Samples;Min_cycle;Max_cycle;Signal;HPM_P1;HPM_P2
2021/06/09 00:01:44;;;;;;;15.88;8.30;;;;;;;;;;5035980;28;20068;-67
2021/06/09 00:04:09;;;;;;;15.90;7.90;;;;;;;;;;5036441;28;20104;-68
2021/06/09 00:06:35;;;;;;;13.18;7.40;;;;;;;;;;5036277;28;20025;-68
2021/06/09 00:09:01;;;;;;;11.90;7.30;;;;;;;;;;5036031;28;20175;-68
2021/06/09 00:11:26;;;;;;;14.73;7.38;;;;;;;;;;5035286;28;20049;-68
2021/06/09 00:13:51;;;;;;;21.85;8.68;;;;;;;;;;5035641;28;20049;-67
2021/06/09 00:16:19;;;;;;;14.88;7.50;;;;;;;;;;5035937;28;20077;-68
2021/06/09 00:18:44;;;;;;;13.65;7.60;;;;;;;;;;5035985;28;20048;-68
2021/06/09 00:21:11;;;;;;;11.20;6.75;;;;;;;;;;5036076;28;20056;-68
2021/06/09 00:23:37;;;;;;;16.65;7.88;;;;;;;;;;5035777;28;20417;-68
2021/06/09 00:26:03;;;;;;;14.25;9.30;;;;;;;;;;5035366;28;20031;-68
2021/06/09 00:28:29;;;;;;;17.15;8.57;;;;;;;;;;5017204;28;20397;-67
2021/06/09 00:30:54;;;;;;;17.45;8.30;;;;;;;;;;5035755;28;20029;-68
2021/06/09 00:33:20;;;;;;;17.65;8.98;;;;;;;;;;5035608;28;20025;-67
2021/06/09 00:35:45;;;;;;;29.55;10.07;;;;;;;;;;5035256;28;20080;-68
2021/06/09 00:38:11;;;;;;;16.77;9.65;;;;;;;;;;5035823;28;20116;-68
2021/06/09 00:40:36;;;;;;;18.73;9.02;;;;;;;;;;5035341;28;20029;-68
2021/06/09 00:43:08;;;;;;;22.88;9.88;;;;;;;;;;5035144;28;20017;-68
2021/06/09 00:45:34;;;;;;;18.13;9.43;;;;;;;;;;5035414;28;20025;-68
2021/06/09 00:47:59;;;;;;;45.45;12.82;;;;;;;;;;5035079;28;20025;-68
2021/06/09 00:50:25;;;;;;;35.03;12.27;;;;;;;;;;5035233;28;20072;-68
2021/06/09 00:52:51;;;;;;;34.40;12.27;;;;;;;;;;5035244;28;20052;-68
2021/06/09 00:55:16;;;;;;;28.15;11.60;;;;;;;;;;5033682;28;20545;-68
2021/06/09 00:57:42;;;;;;;33.05;11.60;;;;;;;;;;5034919;28;20105;-68
2021/06/09 01:00:09;;;;;;;24.55;11.18;;;;;;;;;;5034947;28;20021;-67
2021/06/09 01:02:34;;;;;;;26.83;10.82;;;;;;;;;;5034766;28;20598;-68
2021/06/09 01:05:00;;;;;;;27.83;10.63;;;;;;;;;;5017308;28;20108;-67
2021/06/09 01:07:25;;;;;;;24.48;11.80;;;;;;;;;;5034992;28;20019;-68
2021/06/09 01:09:51;;;;;;;21.67;10.23;;;;;;;;;;5056309;28;20049;-67
2021/06/09 01:12:16;;;;;;;23.65;10.50;;;;;;;;;;5057665;28;20065;-67
2021/06/09 01:14:42;;;;;;;33.95;12.13;;;;;;;;;;5049201;28;20024;-67
2021/06/09 01:17:07;;;;;;;25.70;11.00;;;;;;;;;;5035334;28;20110;-67
2021/06/09 01:19:33;;;;;;;22.17;11.18;;;;;;;;;;5035429;28;20366;-67
2021/06/09 01:21:58;;;;;;;25.20;12.52;;;;;;;;;;5034582;28;20033;-67
2021/06/09 01:24:24;;;;;;;24.85;11.48;;;;;;;;;;5034759;28;20033;-68
2021/06/09 01:26:49;;;;;;;17.80;9.75;;;;;;;;;;5034849;28;20021;-67
2021/06/09 01:29:15;;;;;;;20.35;10.30;;;;;;;;;;5034798;28;20030;-68
2021/06/09 01:31:40;;;;;;;15.40;8.75;;;;;;;;;;5034607;28;20021;-68
2021/06/09 01:34:06;;;;;;;21.17;10.15;;;;;;;;;;5034336;28;20025;-68
2021/06/09 01:36:33;;;;;;;15.70;9.38;;;;;;;;;;5034580;28;20021;-67
2021/06/09 01:38:58;;;;;;;22.38;11.57;;;;;;;;;;5034461;28;20020;-67
2021/06/09 01:41:24;;;;;;;23.63;10.95;;;;;;;;;;5033991;28;20033;-68
2021/06/09 01:43:53;;;;;;;17.95;10.10;;;;;;;;;;5034162;28;20025;-67
2021/06/09 01:46:19;;;;;;;25.25;11.35;;;;;;;;;;5032219;28;20389;-68
2021/06/09 01:48:44;;;;;;;14.32;9.57;;;;;;;;;;5034289;28;20037;-68
2021/06/09 01:51:10;;;;;;;17.85;10.07;;;;;;;;;;5034177;28;20075;-68
2021/06/09 01:53:35;;;;;;;30.80;9.93;;;;;;;;;;5016717;28;20026;-67
2021/06/09 01:56:01;;;;;;;14.77;9.40;;;;;;;;;;5033724;28;20075;-67
2021/06/09 01:58:26;;;;;;;20.00;9.32;;;;;;;;;;5034375;28;20029;-68
2021/06/09 02:00:54;;;;;;;22.48;9.70;;;;;;;;;;5034079;28;20024;-68
2021/06/09 02:03:19;;;;;;;16.55;8.20;;;;;;;;;;5033920;28;20072;-68
2021/06/09 02:05:45;;;;;;;18.35;9.43;;;;;;;;;;5015892;28;20018;-67
2021/06/09 02:08:12;;;;;;;14.77;8.38;;;;;;;;;;5032841;28;20124;-68
2021/06/09 02:10:38;;;;;;;17.05;10.20;;;;;;;;;;5033623;28;20585;-68
2021/06/09 02:13:05;;;;;;;22.65;8.77;;;;;;;;;;5020835;28;20101;-67
2021/06/09 02:15:31;;;;;;;11.70;8.05;;;;;;;;;;5013967;28;20025;-68
2021/06/09 02:20:45;;;;;;;22.50;9.38;;;;;;;;;;5014233;28;20028;-68
2021/06/09 02:23:12;;;;;;;13.60;8.10;;;;;;;;;;5013773;28;20010;-68
2021/06/09 02:25:45;;;;;;;18.77;8.70;;;;;;;;;;5013628;28;20022;-68
2021/06/09 02:28:11;;;;;;;19.85;8.50;;;;;;;;;;5013867;28;20038;-68
2021/06/09 02:30:36;;;;;;;15.80;8.70;;;;;;;;;;5013835;28;20512;-68
2021/06/09 02:33:03;;;;;;;13.70;8.23;;;;;;;;;;5013833;28;20033;-68
2021/06/09 02:35:28;;;;;;;12.00;8.65;;;;;;;;;;5013431;28;20060;-68
2021/06/09 02:37:54;;;;;;;12.90;8.13;;;;;;;;;;5013376;28;20427;-67
2021/06/09 02:40:20;;;;;;;23.88;9.32;;;;;;;;;;5013538;28;20025;-68
2021/06/09 02:42:46;;;;;;;17.35;8.98;;;;;;;;;;5010863;28;20021;-68
2021/06/09 02:45:13;;;;;;;15.98;9.40;;;;;;;;;;5013533;28;20014;-68
2021/06/09 02:47:40;;;;;;;17.13;8.80;;;;;;;;;;5013597;28;20018;-68
2021/06/09 02:50:06;;;;;;;12.38;8.25;;;;;;;;;;5013026;28;20029;-68
2021/06/09 02:52:35;;;;;;;14.85;9.43;;;;;;;;;;5013361;28;20022;-68
2021/06/09 02:55:09;;;;;;;18.17;9.45;;;;;;;;;;5013438;28;20021;-67
2021/06/09 02:57:53;;;;;;;19.63;8.55;;;;;;;;;;5013223;28;20042;-68
2021/06/09 03:00:23;;;;;;;13.60;8.38;;;;;;;;;;5013039;28;20022;-67
2021/06/09 03:02:57;;;;;;;20.45;9.30;;;;;;;;;;5012964;28;20018;-67
2021/06/09 03:05:27;;;;;;;16.02;8.77;;;;;;;;;;5013327;28;20093;-68
2021/06/09 03:08:10;;;;;;;20.23;10.00;;;;;;;;;;5012859;28;20052;-68
2021/06/09 03:10:54;;;;;;;19.38;9.55;;;;;;;;;;5013162;28;20017;-68
2021/06/09 03:13:40;;;;;;;11.93;8.77;;;;;;;;;;5011985;28;20054;-68
2021/06/09 03:16:09;;;;;;;32.35;14.52;;;;;;;;;;5012716;28;20064;-68
2021/06/09 03:18:41;;;;;;;43.22;20.30;;;;;;;;;;5012658;28;20018;-67
2021/06/09 03:21:09;;;;;;;58.03;23.58;;;;;;;;;;5012819;28;20041;-68
2021/06/09 03:23:39;;;;;;;75.57;34.92;;;;;;;;;;5012666;28;20025;-67
2021/06/09 03:26:15;;;;;;;59.45;25.05;;;;;;;;;;5012897;28;20386;-68
2021/06/09 03:28:45;;;;;;;59.60;28.35;;;;;;;;;;5012944;28;20025;-68
2021/06/09 03:31:15;;;;;;;45.70;21.05;;;;;;;;;;5012808;28;20076;-68
2021/06/09 03:33:42;;;;;;;43.35;23.65;;;;;;;;;;5012670;28;20022;-68
2021/06/09 03:36:09;;;;;;;32.67;18.80;;;;;;;;;;5012375;28;20116;-68
2021/06/09 03:38:44;;;;;;;27.88;15.73;;;;;;;;;;5012551;28;20026;-68
2021/06/09 03:41:10;;;;;;;26.90;15.38;;;;;;;;;;5012340;28;20026;-68
2021/06/09 03:43:38;;;;;;;25.35;14.85;;;;;;;;;;5010127;28;20085;-68
2021/06/09 03:46:06;;;;;;;29.10;14.00;;;;;;;;;;5012555;28;20036;-68
2021/06/09 03:48:32;;;;;;;21.35;11.60;;;;;;;;;;5011763;28;20041;-67
2021/06/09 03:50:59;;;;;;;19.85;11.45;;;;;;;;;;5012665;28;20025;-68
2021/06/09 03:53:26;;;;;;;17.80;10.10;;;;;;;;;;5012486;28;20470;-68
2021/06/09 03:55:54;;;;;;;15.35;9.88;;;;;;;;;;5012184;28;20029;-68
2021/06/09 03:58:19;;;;;;;16.00;9.73;;;;;;;;;;5012545;28;20014;-68
2021/06/09 04:00:46;;;;;;;18.05;8.82;;;;;;;;;;5012363;28;20026;-68
2021/06/09 04:03:12;;;;;;;11.45;8.27;;;;;;;;;;5012285;28;20541;-67
2021/06/09 04:05:39;;;;;;;14.70;9.50;;;;;;;;;;5012452;28;20116;-68
2021/06/09 04:08:05;;;;;;;18.52;8.93;;;;;;;;;;5012397;28;20030;-68
2021/06/09 04:10:32;;;;;;;9.95;7.53;;;;;;;;;;5012639;28;20021;-68
2021/06/09 04:12:58;;;;;;;12.65;7.85;;;;;;;;;;5011619;28;20426;-68
2021/06/09 04:15:26;;;;;;;10.80;7.72;;;;;;;;;;5012608;28;20025;-68
2021/06/09 04:17:52;;;;;;;14.77;8.50;;;;;;;;;;5011868;28;20088;-67
2021/06/09 04:20:21;;;;;;;20.98;7.97;;;;;;;;;;5012314;28;20017;-68
2021/06/09 04:22:46;;;;;;;19.20;8.50;;;;;;;;;;5012552;28;20013;-67
2021/06/09 04:25:12;;;;;;;13.77;8.10;;;;;;;;;;5012444;28;20072;-67
2021/06/09 04:27:39;;;;;;;9.50;7.35;;;;;;;;;;5012336;28;20026;-68
2021/06/09 04:30:05;;;;;;;18.40;6.93;;;;;;;;;;5012257;28;20459;-68
2021/06/09 04:32:50;;;;;;;19.42;8.52;;;;;;;;;;5015127;28;20026;-68
2021/06/09 04:35:15;;;;;;;20.40;8.38;;;;;;;;;;5026987;28;20113;-68
2021/06/09 04:37:41;;;;;;;16.55;7.95;;;;;;;;;;5039454;28;20014;-67
2021/06/09 04:40:07;;;;;;;18.80;7.50;;;;;;;;;;5037345;28;20030;-68
2021/06/09 04:42:33;;;;;;;12.45;7.47;;;;;;;;;;5021304;28;20072;-67
2021/06/09 04:44:58;;;;;;;15.30;8.80;;;;;;;;;;5015978;28;20022;-67
2021/06/09 04:47:29;;;;;;;16.98;8.00;;;;;;;;;;5015590;28;20501;-67
2021/06/09 04:49:54;;;;;;;13.70;7.82;;;;;;;;;;5015379;28;20026;-68
2021/06/09 04:52:20;;;;;;;17.02;7.82;;;;;;;;;;5015448;28;20027;-68
2021/06/09 04:54:45;;;;;;;11.60;7.40;;;;;;;;;;5015610;28;20033;-67
2021/06/09 04:57:10;;;;;;;17.10;8.18;;;;;;;;;;5015518;28;20026;-67
2021/06/09 04:59:36;;;;;;;12.20;7.00;;;;;;;;;;5015378;28;20517;-68
2021/06/09 05:02:02;;;;;;;13.70;7.43;;;;;;;;;;5015173;28;20030;-67
2021/06/09 05:04:27;;;;;;;20.80;6.68;;;;;;;;;;5015263;28;20067;-68
2021/06/09 05:06:53;;;;;;;14.32;7.68;;;;;;;;;;5015193;28;20104;-67
2021/06/09 05:09:19;;;;;;;18.38;7.00;;;;;;;;;;5014925;28;20030;-68
2021/06/09 05:11:52;;;;;;;15.38;6.65;;;;;;;;;;5014112;28;20014;-67
2021/06/09 05:14:30;;;;;;;10.07;6.50;;;;;;;;;;5014944;28;20037;-68
2021/06/09 05:16:57;;;;;;;10.65;6.75;;;;;;;;;;5014997;28;20029;-68
2021/06/09 05:19:25;;;;;;;14.50;7.18;;;;;;;;;;5015224;28;20014;-68
2021/06/09 05:21:53;;;;;;;9.85;6.57;;;;;;;;;;5013466;28;20009;-67
2021/06/09 05:24:20;;;;;;;11.32;5.75;;;;;;;;;;5015102;28;20049;-67
2021/06/09 05:26:47;;;;;;;11.57;6.50;;;;;;;;;;5014739;28;20493;-67
2021/06/09 05:29:15;;;;;;;12.35;5.50;;;;;;;;;;5014627;28;20030;-68
2021/06/09 05:31:42;;;;;;;13.68;5.35;;;;;;;;;;5015048;28;20022;-68
2021/06/09 05:34:08;;;;;;;12.55;5.45;;;;;;;;;;5014730;28;20022;-67
2021/06/09 05:36:34;;;;;;;6.55;5.15;;;;;;;;;;5014772;28;20117;-68
2021/06/09 05:39:00;;;;;;;12.30;5.53;;;;;;;;;;5014770;28;20172;-68
2021/06/09 05:41:26;;;;;;;5.60;4.57;;;;;;;;;;5014002;28;20022;-67
2021/06/09 05:43:51;;;;;;;5.75;4.50;;;;;;;;;;5014018;28;20026;-68
2021/06/09 05:46:18;;;;;;;10.38;5.30;;;;;;;;;;5014427;28;20041;-68
2021/06/09 05:48:44;;;;;;;9.43;4.57;;;;;;;;;;5014440;28;20089;-68
2021/06/09 05:51:10;;;;;;;5.55;4.53;;;;;;;;;;5014413;28;20018;-67
2021/06/09 05:53:35;;;;;;;6.88;4.95;;;;;;;;;;5013446;28;20044;-67
2021/06/09 05:56:01;;;;;;;5.97;4.53;;;;;;;;;;5014009;28;20494;-67
2021/06/09 05:58:27;;;;;;;13.82;4.63;;;;;;;;;;5014107;28;20018;-67
2021/06/09 06:00:55;;;;;;;9.55;4.28;;;;;;;;;;5008435;28;20426;-68
2021/06/09 06:03:23;;;;;;;8.68;3.80;;;;;;;;;;5003348;28;20018;-68
2021/06/09 06:05:55;;;;;;;5.63;4.07;;;;;;;;;;5003081;28;20121;-68
2021/06/09 06:08:20;;;;;;;8.07;4.55;;;;;;;;;;5001198;28;20030;-68
2021/06/09 06:10:46;;;;;;;5.68;3.97;;;;;;;;;;5003037;28;20555;-70
2021/06/09 06:13:12;;;;;;;9.48;4.30;;;;;;;;;;5005469;28;20125;-68
2021/06/09 06:15:38;;;;;;;5.18;3.75;;;;;;;;;;5000368;28;20029;-68
2021/06/09 06:18:03;;;;;;;14.63;4.60;;;;;;;;;;5003895;28;20498;-69
2021/06/09 06:20:29;;;;;;;10.15;4.15;;;;;;;;;;5006434;28;20462;-69
2021/06/09 06:22:55;;;;;;;6.55;4.15;;;;;;;;;;5003786;28;20030;-67
2021/06/09 06:25:23;;;;;;;9.05;3.50;;;;;;;;;;4987473;28;20054;-68
2021/06/09 06:27:50;;;;;;;5.32;3.20;;;;;;;;;;5012997;28;20541;-67
2021/06/09 06:30:16;;;;;;;12.00;4.20;;;;;;;;;;4997466;28;20034;-66
2021/06/09 06:32:42;;;;;;;7.50;4.38;;;;;;;;;;4996330;28;20069;-67
2021/06/09 06:35:12;;;;;;;4.72;4.30;;;;;;;;;;5032065;28;20120;-66
2021/06/09 06:37:38;;;;;;;5.70;3.30;;;;;;;;;;5032673;28;20502;-61
2021/06/09 06:40:04;;;;;;;4.68;3.90;;;;;;;;;;5007990;28;20439;-62
2021/06/09 06:42:30;;;;;;;6.60;3.88;;;;;;;;;;5011427;28;20443;-61
2021/06/09 06:44:55;;;;;;;9.98;4.28;;;;;;;;;;5008524;28;20037;-61
2021/06/09 06:47:24;;;;;;;7.70;3.80;;;;;;;;;;4993243;28;20077;-61
2021/06/09 06:49:50;;;;;;;;;;;;;;;;;;5001284;28;20026;-60
2021/06/09 06:52:16;;;;;;;10.93;3.72;;;;;;;;;;4993355;28;19916;-62
2021/06/09 06:54:41;;;;;;;7.65;3.53;;;;;;;;;;4992443;28;20030;-64
2021/06/09 06:57:07;;;;;;;12.93;3.88;;;;;;;;;;4993414;28;20022;-62
2021/06/09 06:59:32;;;;;;;6.55;3.35;;;;;;;;;;4992716;28;20382;-63
2021/06/09 07:01:58;;;;;;;7.00;3.92;;;;;;;;;;4975487;28;20109;-61
2021/06/09 07:04:25;;;;;;;13.55;3.80;;;;;;;;;;4993140;28;20088;-61
2021/06/09 07:06:50;;;;;;;5.45;3.47;;;;;;;;;;4993198;28;20117;-65
2021/06/09 07:09:17;;;;;;;12.95;3.63;;;;;;;;;;4992632;28;20503;-64
2021/06/09 07:11:43;;;;;;;6.68;3.33;;;;;;;;;;5006443;28;20088;-64
2021/06/09 07:14:09;;;;;;;9.38;3.60;;;;;;;;;;5030338;28;20409;-64
2021/06/09 07:16:36;;;;;;;6.82;3.38;;;;;;;;;;5029554;28;20025;-64
2021/06/09 07:19:02;;;;;;;8.50;3.75;;;;;;;;;;5021562;28;20083;-64
2021/06/09 07:21:27;;;;;;;12.85;3.22;;;;;;;;;;5025537;28;20021;-64
2021/06/09 07:23:53;;;;;;;32.88;4.07;;;;;;;;;;5021959;28;20057;-64
2021/06/09 07:26:21;;;;;;;12.63;3.05;;;;;;;;;;5022620;28;20093;-64
2021/06/09 07:28:50;;;;;;;6.07;3.17;;;;;;;;;;5019821;28;20132;-64
2021/06/09 07:31:18;;;;;;;8.95;3.42;;;;;;;;;;5018516;28;20183;-62
2021/06/09 07:33:46;;;;;;;7.00;3.13;;;;;;;;;;5023808;28;20028;-64
2021/06/09 07:36:13;;;;;;;7.60;3.10;;;;;;;;;;5023182;28;20022;-65
2021/06/09 07:38:42;;;;;;;6.18;3.28;;;;;;;;;;5021536;28;20066;-66
2021/06/09 07:41:08;;;;;;;9.13;2.92;;;;;;;;;;5023254;28;20022;-64
2021/06/09 07:43:38;;;;;;;10.43;3.33;;;;;;;;;;5030679;28;20021;-64
2021/06/09 07:46:03;;;;;;;8.68;2.78;;;;;;;;;;5031336;28;20547;-64
2021/06/09 07:48:29;;;;;;;10.27;2.75;;;;;;;;;;5031671;28;20061;-64
2021/06/09 07:51:00;;;;;;;7.90;3.00;;;;;;;;;;5032030;28;20017;-74
2021/06/09 07:53:26;;;;;;;6.00;2.58;;;;;;;;;;5032566;28;20056;-75
2021/06/09 07:55:52;;;;;;;6.10;3.50;;;;;;;;;;5031616;28;20021;-73
2021/06/09 07:58:20;;;;;;;6.80;2.90;;;;;;;;;;5030897;28;20013;-74
2021/06/09 08:00:47;;;;;;;6.07;2.97;;;;;;;;;;5034892;28;20080;-75
2021/06/09 08:03:12;;;;;;;9.20;2.55;;;;;;;;;;5206422;22;20086;-77
2021/06/09 08:05:39;;;;;;;12.93;3.20;;;;;;;;;;5073677;28;20017;-75
2021/06/09 08:08:05;;;;;;;6.28;3.30;;;;;;;;;;5074824;28;20048;-73
2021/06/09 08:10:31;;;;;;;5.13;2.80;;;;;;;;;;5075340;28;20056;-73
2021/06/09 08:12:57;;;;;;;5.30;2.60;;;;;;;;;;5074369;28;20016;-71
2021/06/09 08:15:22;;;;;;;6.13;2.95;;;;;;;;;;5075357;28;20054;-72
2021/06/09 08:17:49;;;;;;;4.80;2.50;;;;;;;;;;5056514;28;20468;-72
2021/06/09 08:20:17;;;;;;;4.63;2.53;;;;;;;;;;5083254;28;20020;-71
2021/06/09 08:22:44;;;;;;;4.90;2.72;;;;;;;;;;5100505;28;20008;-73
2021/06/09 08:25:10;;;;;;;5.97;2.40;;;;;;;;;;5100056;28;20032;-72
2021/06/09 08:27:36;;;;;;;4.75;2.30;;;;;;;;;;5089824;28;20440;-74
2021/06/09 08:30:04;;;;;;;9.23;2.42;;;;;;;;;;5057158;28;20028;-73
2021/06/09 08:32:29;;;;;;;17.03;2.80;;;;;;;;;;5075227;28;20035;-70
2021/06/09 08:34:55;;;;;;;10.63;2.20;;;;;;;;;;5074965;28;20276;-74
2021/06/09 08:37:21;;;;;;;4.35;2.35;;;;;;;;;;5056794;28;20055;-73
2021/06/09 08:39:47;;;;;;;3.78;2.10;;;;;;;;;;5054489;28;20020;-73
2021/06/09 08:42:13;;;;;;;2.88;2.10;;;;;;;;;;5056276;28;20017;-73
2021/06/09 08:44:41;;;;;;;4.40;2.25;;;;;;;;;;5051088;28;20025;-73
2021/06/09 08:47:09;;;;;;;5.78;2.17;;;;;;;;;;5019022;28;20032;-73
2021/06/09 08:49:34;;;;;;;4.33;2.53;;;;;;;;;;5054316;28;20404;-71
2021/06/09 08:52:01;;;;;;;2.50;2.00;;;;;;;;;;5025132;28;20108;-73
2021/06/09 08:54:27;;;;;;;2.58;2.38;;;;;;;;;;5045062;28;20009;-73
2021/06/09 08:56:52;;;;;;;6.75;2.33;;;;;;;;;;5041706;28;20113;-72
2021/06/09 08:59:21;;;;;;;3.80;2.13;;;;;;;;;;5044110;28;20025;-73
2021/06/09 09:01:48;;;;;;;;;;;;;;;;;;5054465;28;20041;-72
2021/06/09 09:04:14;;;;;;;2.50;2.30;;;;;;;;;;5037797;28;19913;-71
2021/06/09 09:06:40;;;;;;;2.95;2.28;;;;;;;;;;5035525;28;20465;-73
2021/06/09 09:09:05;;;;;;;2.20;2.00;;;;;;;;;;5016852;28;20022;-69
2021/06/09 09:11:31;;;;;;;4.65;2.47;;;;;;;;;;5034748;28;20037;-76
2021/06/09 09:13:56;;;;;;;4.22;2.58;;;;;;;;;;5036393;28;20021;-72
2021/06/09 09:16:21;;;;;;;5.60;2.45;;;;;;;;;;5035380;28;20086;-71
2021/06/09 09:19:00;;;;;;;6.20;2.33;;;;;;;;;;5037744;28;20021;-71
2021/06/09 09:21:34;;;;;;;11.20;3.20;;;;;;;;;;5057537;28;20028;-73
2021/06/09 09:23:59;;;;;;;6.70;2.72;;;;;;;;;;5054109;28;20021;-72
2021/06/09 09:26:28;;;;;;;3.90;2.58;;;;;;;;;;5054114;28;20017;-75
2021/06/09 09:29:10;;;;;;;2.92;2.22;;;;;;;;;;5053437;28;20021;-71
2021/06/09 09:31:51;;;;;;;4.45;2.25;;;;;;;;;;5039778;28;20028;-72
2021/06/09 09:34:29;;;;;;;6.35;2.17;;;;;;;;;;5033948;28;20033;-70
2021/06/09 09:37:06;;;;;;;6.22;2.72;;;;;;;;;;5034024;28;20021;-71
2021/06/09 09:39:31;;;;;;;6.30;2.75;;;;;;;;;;5034019;28;20159;-71
2021/06/09 09:41:57;;;;;;;3.33;2.58;;;;;;;;;;5033013;28;20096;-71
2021/06/09 09:44:22;;;;;;;6.05;2.85;;;;;;;;;;5034222;28;20024;-72
2021/06/09 09:46:55;;;;;;;5.10;2.60;;;;;;;;;;5038044;28;20020;-72
2021/06/09 09:49:22;;;;;;;8.55;2.90;;;;;;;;;;5041455;28;20048;-71
2021/06/09 09:51:55;;;;;;;4.35;3.00;;;;;;;;;;5020655;28;20029;-74
2021/06/09 09:54:27;;;;;;;8.50;2.92;;;;;;;;;;5046675;28;20048;-72
2021/06/09 09:56:52;;;;;;;3.90;2.75;;;;;;;;;;5046396;28;20044;-72
2021/06/09 09:59:20;;;;;;;4.93;3.08;;;;;;;;;;5043779;28;20056;-70
2021/06/09 10:01:50;;;;;;;3.95;2.60;;;;;;;;;;5040031;28;20076;-70
2021/06/09 10:04:17;;;;;;;3.58;2.70;;;;;;;;;;5047064;28;20033;-71
2021/06/09 10:06:43;;;;;;;6.95;2.60;;;;;;;;;;5043000;28;20577;-72
2021/06/09 10:09:12;;;;;;;4.80;2.47;;;;;;;;;;5051430;28;20107;-68
2021/06/09 10:11:39;;;;;;;7.22;2.90;;;;;;;;;;5046336;28;20017;-72
2021/06/09 10:14:13;;;;;;;5.80;3.05;;;;;;;;;;5042388;28;20025;-73
2021/06/09 10:16:40;;;;;;;3.25;2.28;;;;;;;;;;5039526;28;20018;-71
2021/06/09 10:19:08;;;;;;;5.10;2.95;;;;;;;;;;5046338;28;20469;-71
2021/06/09 10:21:35;;;;;;;9.30;2.67;;;;;;;;;;5036100;28;20025;-72
2021/06/09 10:24:02;;;;;;;3.65;2.60;;;;;;;;;;5042151;28;20437;-72
2021/06/09 10:26:28;;;;;;;4.82;2.70;;;;;;;;;;5051982;28;20074;-72
2021/06/09 10:29:04;;;;;;;3.42;2.33;;;;;;;;;;5040249;28;20034;-71
2021/06/09 10:31:31;;;;;;;4.13;2.63;;;;;;;;;;5037687;28;20049;-71
2021/06/09 10:33:57;;;;;;;3.42;2.45;;;;;;;;;;5041338;28;20119;-70
2021/06/09 10:36:22;;;;;;;2.60;2.40;;;;;;;;;;5039088;28;20475;-75
2021/06/09 10:38:48;;;;;;;4.88;2.78;;;;;;;;;;5042202;28;20060;-73
2021/06/09 10:41:14;;;;;;;3.95;2.47;;;;;;;;;;5046213;28;20496;-73
2021/06/09 10:43:44;;;;;;;2.90;2.60;;;;;;;;;;5040199;28;20029;-73
2021/06/09 10:46:10;;;;;;;3.55;2.53;;;;;;;;;;5034736;28;20025;-70
2021/06/09 10:48:36;;;;;;;6.40;2.90;;;;;;;;;;5052043;28;20029;-71
2021/06/09 10:51:01;;;;;;;3.30;2.75;;;;;;;;;;5052128;28;20108;-73
2021/06/09 10:53:27;;;;;;;4.93;2.63;;;;;;;;;;5052771;28;20156;-72
2021/06/09 10:55:53;;;;;;;4.05;2.60;;;;;;;;;;5052254;28;20025;-71
2021/06/09 10:58:18;;;;;;;3.72;2.42;;;;;;;;;;5044483;28;20529;-73
2021/06/09 11:00:44;;;;;;;4.22;2.40;;;;;;;;;;5032738;28;20035;-76
2021/06/09 11:03:10;;;;;;;5.07;2.47;;;;;;;;;;5032501;28;20059;-75
2021/06/09 11:05:36;;;;;;;5.32;2.60;;;;;;;;;;4998344;28;20075;-73
2021/06/09 11:08:02;;;;;;;4.65;2.60;;;;;;;;;;5034119;28;20505;-71
2021/06/09 11:10:37;;;;;;;3.53;2.60;;;;;;;;;;5032330;28;20020;-71
2021/06/09 11:13:04;;;;;;;2.95;2.20;;;;;;;;;;5036162;28;20031;-74
2021/06/09 11:15:34;;;;;;;6.22;2.65;;;;;;;;;;5052557;28;20025;-76
2021/06/09 11:18:01;;;;;;;15.60;3.03;;;;;;;;;;5051701;28;20021;-74
2021/06/09 11:20:33;;;;;;;3.72;2.33;;;;;;;;;;5051990;28;20458;-75
2021/06/09 11:23:05;;;;;;;5.47;2.58;;;;;;;;;;5055061;28;20082;-75
2021/06/09 11:25:33;;;;;;;6.38;3.28;;;;;;;;;;5072065;28;20083;-72
2021/06/09 11:28:06;;;;;;;3.55;3.25;;;;;;;;;;5071418;28;20096;-70
2021/06/09 11:30:38;;;;;;;5.45;3.45;;;;;;;;;;5040533;28;20056;-74
2021/06/09 11:33:05;;;;;;;5.68;3.00;;;;;;;;;;5040262;28;20575;-73
2021/06/09 11:35:41;;;;;;;5.75;3.20;;;;;;;;;;5031416;28;20033;-73
2021/06/09 11:38:21;;;;;;;9.60;3.40;;;;;;;;;;5042362;28;20112;-74
2021/06/09 11:40:59;;;;;;;5.30;3.30;;;;;;;;;;5054069;28;20017;-73
2021/06/09 11:43:26;;;;;;;7.15;3.25;;;;;;;;;;5055042;28;20020;-73
2021/06/09 11:46:05;;;;;;;5.95;3.35;;;;;;;;;;5045036;28;20037;-72
2021/06/09 11:48:31;;;;;;;3.63;3.33;;;;;;;;;;5049049;28;20029;-68
2021/06/09 11:51:20;;;;;;;6.57;4.00;;;;;;;;;;5046892;28;20389;-63
2021/06/09 11:53:47;;;;;;;8.15;3.85;;;;;;;;;;5023141;28;20615;-63
2021/06/09 11:56:15;;;;;;;5.22;3.53;;;;;;;;;;5038879;28;20025;-64
2021/06/09 11:58:41;;;;;;;4.40;3.50;;;;;;;;;;5048750;28;20029;-62
2021/06/09 12:01:08;;;;;;;5.25;3.05;;;;;;;;;;5046800;28;20409;-63
2021/06/09 12:03:33;;;;;;;4.63;2.80;;;;;;;;;;5055588;28;20448;-64
2021/06/09 12:06:10;;;;;;;4.65;2.97;;;;;;;;;;5072349;28;20009;-63
2021/06/09 12:08:35;;;;;;;5.05;3.00;;;;;;;;;;5066804;28;20029;-64
2021/06/09 12:11:00;;;;;;;7.10;3.28;;;;;;;;;;5052666;28;20120;-65
2021/06/09 12:13:26;;;;;;;4.28;2.47;;;;;;;;;;5059622;28;20504;-63
2021/06/09 12:15:59;;;;;;;5.97;3.47;;;;;;;;;;5060122;28;20151;-63
2021/06/09 12:18:28;;;;;;;5.68;2.80;;;;;;;;;;5058092;28;20017;-63
2021/06/09 12:21:00;;;;;;;4.03;2.97;;;;;;;;;;5057907;28;20047;-64
2021/06/09 12:23:26;;;;;;;5.78;2.78;;;;;;;;;;5058452;28;20059;-63
2021/06/09 12:25:51;;;;;;;3.20;2.90;;;;;;;;;;5054883;28;20436;-63
2021/06/09 12:28:17;;;;;;;4.13;3.30;;;;;;;;;;5048415;28;20032;-61
2021/06/09 12:30:51;;;;;;;4.82;3.08;;;;;;;;;;5055954;28;20502;-63
2021/06/09 12:33:16;;;;;;;4.30;3.08;;;;;;;;;;5058305;28;20040;-63
2021/06/09 12:35:42;;;;;;;3.22;2.88;;;;;;;;;;5054245;28;20017;-63
2021/06/09 12:38:08;;;;;;;5.65;3.10;;;;;;;;;;5048870;28;20106;-64
2021/06/09 12:40:35;;;;;;;9.68;3.30;;;;;;;;;;5057965;28;20492;-62
2021/06/09 12:43:02;;;;;;;4.03;3.17;;;;;;;;;;5057354;28;20056;-64
2021/06/09 12:45:28;;;;;;;4.15;3.03;;;;;;;;;;5036093;28;20053;-64
2021/06/09 12:47:54;;;;;;;5.70;2.90;;;;;;;;;;5050393;28;20021;-64
2021/06/09 12:50:24;;;;;;;4.03;2.95;;;;;;;;;;5048029;28;20470;-64
2021/06/09 12:52:54;;;;;;;4.32;2.90;;;;;;;;;;5044622;28;20104;-64
2021/06/09 12:55:23;;;;;;;5.65;3.45;;;;;;;;;;5022392;28;20573;-66
2021/06/09 12:57:49;;;;;;;3.55;3.25;;;;;;;;;;5041552;28;20063;-66
2021/06/09 13:00:33;;;;;;;4.72;2.95;;;;;;;;;;5043510;28;20045;-66
2021/06/09 13:03:18;;;;;;;3.25;2.80;;;;;;;;;;5043032;28;20088;-66
2021/06/09 13:05:50;;;;;;;3.83;3.10;;;;;;;;;;5043469;28;20017;-66
2021/06/09 13:08:17;;;;;;;3.22;2.70;;;;;;;;;;5042841;28;20029;-66
2021/06/09 13:10:43;;;;;;;5.05;3.20;;;;;;;;;;5044166;28;20013;-65
2021/06/09 13:13:13;;;;;;;8.45;3.22;;;;;;;;;;5039232;28;20100;-65
2021/06/09 13:15:40;;;;;;;3.42;3.13;;;;;;;;;;5043861;28;20370;-68
2021/06/09 13:18:06;;;;;;;3.80;2.80;;;;;;;;;;5044672;28;20068;-69
2021/06/09 13:20:32;;;;;;;4.40;3.28;;;;;;;;;;5040417;28;20021;-69
2021/06/09 13:22:58;;;;;;;5.05;2.83;;;;;;;;;;5041057;28;20373;-68
2021/06/09 13:25:23;;;;;;;4.38;3.42;;;;;;;;;;5034252;28;20058;-71
2021/06/09 13:27:53;;;;;;;6.95;2.75;;;;;;;;;;5033632;28;20394;-71
2021/06/09 13:30:20;;;;;;;40.72;7.55;;;;;;;;;;5042325;28;20025;-72
2021/06/09 13:32:47;;;;;;;9.65;3.78;;;;;;;;;;5044540;28;20423;-73
2021/06/09 13:35:19;;;;;;;4.63;3.17;;;;;;;;;;5044331;28;20013;-73
2021/06/09 13:37:51;;;;;;;4.47;3.05;;;;;;;;;;5038709;28;20013;-73
2021/06/09 13:40:21;;;;;;;3.70;3.03;;;;;;;;;;5033658;28;20116;-74
2021/06/09 13:42:54;;;;;;;8.50;3.30;;;;;;;;;;5034502;28;20030;-76
2021/06/09 13:45:21;;;;;;;6.22;3.35;;;;;;;;;;5047450;28;20021;-73
2021/06/09 13:47:46;;;;;;;17.42;3.90;;;;;;;;;;5021713;28;20022;-75
2021/06/09 13:50:14;;;;;;;3.40;3.10;;;;;;;;;;5043191;28;20107;-75
2021/06/09 13:52:40;;;;;;;4.43;3.67;;;;;;;;;;5044216;28;20474;-73
2021/06/09 13:55:06;;;;;;;6.15;3.75;;;;;;;;;;5052180;28;20107;-76
2021/06/09 13:57:35;;;;;;;20.13;3.97;;;;;;;;;;5053180;28;20028;-74
2021/06/09 14:00:03;;;;;;;5.82;3.70;;;;;;;;;;5052675;28;20438;-72
2021/06/09 14:02:32;;;;;;;6.35;3.50;;;;;;;;;;5052682;28;20092;-73
2021/06/09 14:05:18;;;;;;;10.05;3.60;;;;;;;;;;5051285;28;20056;-72
2021/06/09 14:07:45;;;;;;;8.15;3.47;;;;;;;;;;5027122;28;20074;-75
2021/06/09 14:10:13;;;;;;;11.13;3.35;;;;;;;;;;5041413;28;20033;-74
2021/06/09 14:12:40;;;;;;;7.50;3.42;;;;;;;;;;5052041;28;20377;-72
2021/06/09 14:15:07;;;;;;;5.07;3.60;;;;;;;;;;5053274;28;20380;-73
2021/06/09 14:17:32;;;;;;;5.50;3.35;;;;;;;;;;5051791;28;20016;-72
2021/06/09 14:20:04;;;;;;;4.30;3.28;;;;;;;;;;5047679;28;20491;-73
2021/06/09 14:22:30;;;;;;;5.95;3.50;;;;;;;;;;5043491;28;20087;-70
2021/06/09 14:25:04;;;;;;;8.48;3.20;;;;;;;;;;5052352;28;20381;-72
2021/06/09 14:27:29;;;;;;;6.32;3.60;;;;;;;;;;5044535;28;20052;-71
2021/06/09 14:30:09;;;;;;;4.15;3.75;;;;;;;;;;5050044;28;20064;-70
2021/06/09 14:32:37;;;;;;;;;;;;;;;;;;5049825;28;20552;-71
2021/06/09 14:35:13;;;;;;;12.48;3.72;;;;;;;;;;5052917;28;19909;-68
2021/06/09 14:37:41;;;;;;;7.18;3.88;;;;;;;;;;5051403;28;20091;-69
2021/06/09 14:40:09;;;;;;;9.40;4.25;;;;;;;;;;5052022;28;20035;-69
2021/06/09 14:42:34;;;;;;;7.53;3.95;;;;;;;;;;5056178;28;20025;-69